• Join FlightAware (Why Join?)
  • Login
  • US Flag 
10:31PM EDT


 

Airport Tracker/Info


-or-


 

Live Flight TrackerFlight Track Log ✈ N1926A ✈ 16-Jun-2013 ✈ KDTS - 41A

Flight Track Log - Related Links

Times and Time Zones

All times are in EDT time to prevent confusion due to time zone crossing. See the N1926A flight status page for this flight to view local times or setup timezone preferences in your user account.

Time Position Orientation Groundspeed Altitude Reporting Facility
EDT Latitude Longitude Course Direction KTS MPH feet Rate Location/Type
04:11PM 30.3750 -86.3958 10° North 192 221 3,600  Level Jacksonville Center
04:12PM 30.4250 -86.3975 358° North 192 221 5,900 2,100 Climbing Jacksonville Center
04:13PM 30.4708 -86.3969 North 175 201 7,900 1,860 Climbing Jacksonville Center
04:14PM 30.5189 -86.3961 North 175 201 9,700 1,740 Climbing Jacksonville Center
04:15PM 30.7383 -86.3623 10° North  Level FlightAware Approximate
04:15PM 30.5711 -86.3956 North 175 201 11,400  Level Jacksonville Center
04:16PM 30.7961 -86.3508 10° North  Level FlightAware Approximate
04:16PM 30.6256 -86.3928 North 180 207 12,600  Level Jacksonville Center
04:17PM 30.6903 -86.3903 North 204 235 13,000 180 Climbing Jacksonville Center
04:18PM 30.7675 -86.3883 North 233 268 13,000  Level Jacksonville Center
04:19PM 30.8447 -86.3889 360° North 255 293 13,000  Level Jacksonville Center
04:20PM 30.9178 -86.3892 360° North 261 300 13,000  Level Jacksonville Center
04:21PM 30.9897 -86.3603 19° North 266 306 13,000  Level Jacksonville Center
04:22PM 31.0572 -86.3361 17° North 266 306 13,000  Level Jacksonville Center
04:23PM 31.1308 -86.3119 16° North 266 306 13,000  Level Jacksonville Center
04:24PM 31.2044 -86.2928 13° North 266 306 13,000  Level Jacksonville Center
04:25PM 31.2739 -86.2686 17° North 266 306 13,000  Level Jacksonville Center
04:26PM 31.3497 -86.2447 15° North 266 306 13,000  Level Jacksonville Center
04:27PM 31.4233 -86.2231 14° North 266 306 13,000  Level Jacksonville Center
04:29PM 31.5842 -86.1719 15° North 267 307 13,000  Level Atlanta Center
04:30PM 31.6575 -86.1517 13° North 267 307 13,000  Level Atlanta Center
04:31PM 31.7289 -86.1264 17° North 262 302 13,000  Level Atlanta Center
04:32PM 31.8006 -86.0989 18° North 262 302 13,000  Level Atlanta Center
04:33PM 31.8697 -86.0711 19° North 267 307 13,000 -60 Level Atlanta Center
04:34PM 31.9411 -86.0531 12° North 267 307 12,900 -120 Descending Atlanta Center